Time;durP1;ratioP1;P1;durP2;ratioP2;P2;SDS_P1;SDS_P2;PMS_P1;PMS_P2;Temp;Humidity;BMP_temperature;BMP_pressure;BME280_temperature;BME280_humidity;BME280_pressure;Samples;Min_cycle;Max_cycle;Signal;HPM_P1;HPM_P2
2022/05/22 00:00:18;;;;;;;5.40;4.90;;;;;;;22.76;56.35;94788.09;5066237;28;20626;-74
2022/05/22 00:02:46;;;;;;;5.30;5.00;;;;;;;22.80;55.96;94786.88;5066955;28;20670;-74
2022/05/22 00:05:16;;;;;;;6.65;5.00;;;;;;;22.82;55.55;94787.56;5066219;28;20204;-74
2022/05/22 00:07:43;;;;;;;5.72;5.10;;;;;;;22.85;55.38;94786.50;5066746;28;20198;-74
2022/05/22 00:10:12;;;;;;;8.25;4.40;;;;;;;22.89;56.48;94790.47;5066416;28;20232;-74
2022/05/22 00:12:39;;;;;;;5.32;4.93;;;;;;;22.87;56.05;94785.41;5066133;28;20317;-74
2022/05/22 00:15:07;;;;;;;7.55;5.05;;;;;;;22.82;55.48;94779.81;5066441;28;20202;-74
2022/05/22 00:17:35;;;;;;;5.53;5.03;;;;;;;22.81;56.24;94778.16;5066053;28;20279;-74
2022/05/22 00:20:04;;;;;;;5.30;4.95;;;;;;;22.77;55.88;94779.34;5065742;28;20229;-74
2022/05/22 00:22:31;;;;;;;4.95;4.70;;;;;;;22.72;55.50;94776.34;5066982;28;20726;-74
2022/05/22 00:24:58;;;;;;;5.15;4.30;;;;;;;22.76;55.99;94772.56;5066485;28;20218;-74
2022/05/22 00:27:26;;;;;;;7.45;5.03;;;;;;;22.69;56.37;94766.25;5066814;28;20204;-74
2022/05/22 00:29:53;;;;;;;5.70;5.32;;;;;;;22.80;56.44;94773.13;5065607;28;20209;-74
2022/05/22 00:32:20;;;;;;;4.25;4.03;;;;;;;22.82;56.49;94766.03;5065987;28;20226;-74
2022/05/22 00:34:48;;;;;;;5.40;4.90;;;;;;;22.77;55.63;94771.56;5065698;28;20200;-74
2022/05/22 00:37:15;;;;;;;6.03;4.38;;;;;;;22.70;55.99;94773.06;5066394;28;20757;-74
2022/05/22 00:39:43;;;;;;;5.53;4.63;;;;;;;22.65;56.06;94760.50;5063903;28;20197;-74
2022/05/22 00:42:16;;;;;;;4.97;4.53;;;;;;;22.56;57.05;94776.00;5066804;28;20190;-74
2022/05/22 00:44:43;;;;;;;5.32;4.93;;;;;;;22.72;55.89;94776.34;5064831;28;20198;-74
2022/05/22 00:47:10;;;;;;;5.28;4.60;;;;;;;22.83;55.74;94767.66;5066225;28;20208;-75
2022/05/22 00:49:41;;;;;;;6.80;4.07;;;;;;;22.70;56.11;94770.47;5064607;28;20205;-75
2022/05/22 00:52:14;;;;;;;5.18;4.68;;;;;;;22.77;55.95;94763.81;5062924;28;20203;-76
2022/05/22 00:54:44;;;;;;;4.93;4.45;;;;;;;22.76;55.90;94771.72;5065471;28;20212;-77
2022/05/22 00:57:16;;;;;;;39.83;30.73;;;;;;;22.79;55.71;94761.94;5064759;28;20212;-75
2022/05/22 00:59:48;;;;;;;21.05;16.05;;;;;;;22.77;56.19;94766.38;5064964;28;20251;-76
2022/05/22 01:02:15;;;;;;;33.28;26.08;;;;;;;22.71;55.88;94761.75;5066493;28;20206;-75
2022/05/22 01:04:44;;;;;;;13.05;11.52;;;;;;;22.81;56.05;94760.03;5064584;28;20784;-76
2022/05/22 01:07:13;;;;;;;10.07;9.00;;;;;;;22.72;56.20;94766.00;5065144;28;20414;-76
2022/05/22 01:09:40;;;;;;;14.77;11.93;;;;;;;22.67;56.28;94765.56;5064410;28;20201;-75
2022/05/22 01:12:11;;;;;;;7.18;6.57;;;;;;;22.71;56.45;94769.53;5065221;28;20203;-75
2022/05/22 01:14:40;;;;;;;7.13;6.35;;;;;;;22.75;55.84;94760.56;5065399;28;20830;-76
2022/05/22 01:17:10;;;;;;;6.43;5.82;;;;;;;22.75;56.22;94770.91;5063658;28;20206;-75
2022/05/22 01:19:37;;;;;;;6.93;5.13;;;;;;;22.81;56.11;94769.56;5065078;28;21900;-76
2022/05/22 01:22:08;;;;;;;5.13;4.60;;;;;;;22.85;56.04;94769.19;5065770;28;20251;-76
2022/05/22 01:24:35;;;;;;;5.55;5.15;;;;;;;22.72;56.31;94760.81;5065617;28;20372;-77
2022/05/22 01:27:07;;;;;;;7.07;4.68;;;;;;;22.61;56.50;94758.31;5062977;28;20668;-75
2022/05/22 01:29:34;;;;;;;4.90;4.57;;;;;;;22.57;56.70;94757.75;5062400;28;20209;-76
2022/05/22 01:32:00;;;;;;;4.43;4.07;;;;;;;22.64;56.54;94763.22;5062176;28;20230;-76
2022/05/22 01:34:27;;;;;;;6.25;4.88;;;;;;;22.49;57.06;94765.38;5063249;28;20262;-75
2022/05/22 01:36:54;;;;;;;6.03;4.13;;;;;;;22.51;56.48;94767.84;5062411;28;20197;-76
2022/05/22 01:39:22;;;;;;;4.57;3.92;;;;;;;22.52;55.98;94757.31;5061255;28;20209;-73
2022/05/22 01:41:49;;;;;;;5.13;4.63;;;;;;;22.48;56.29;94768.09;5063764;28;20596;-76
2022/05/22 01:44:16;;;;;;;4.47;4.28;;;;;;;22.59;55.72;94765.38;5062887;28;20598;-75
2022/05/22 01:46:43;;;;;;;5.18;4.63;;;;;;;22.62;55.67;94759.94;5065116;28;20626;-76
2022/05/22 01:49:10;;;;;;;6.57;4.30;;;;;;;22.65;55.49;94772.63;5065137;28;20661;-76
2022/05/22 01:51:40;;;;;;;7.25;4.35;;;;;;;22.63;55.59;94764.19;5065326;28;20202;-76
2022/05/22 01:54:07;;;;;;;4.82;4.43;;;;;;;22.61;55.08;94763.50;5064977;28;20255;-76
2022/05/22 01:56:37;;;;;;;4.28;3.97;;;;;;;22.69;54.72;94755.88;5064995;28;20257;-75
2022/05/22 01:59:05;;;;;;;4.43;4.03;;;;;;;22.78;54.45;94757.69;5068961;28;20570;-76
2022/05/22 02:01:32;;;;;;;4.65;3.65;;;;;;;22.64;54.05;94756.28;5069032;28;20731;-76
2022/05/22 02:03:59;;;;;;;7.00;4.10;;;;;;;22.50;54.04;94766.19;5069188;28;20197;-76
2022/05/22 02:06:26;;;;;;;4.00;3.70;;;;;;;22.38;54.07;94766.28;5069573;28;20193;-76
2022/05/22 02:08:52;;;;;;;3.88;3.58;;;;;;;22.22;54.09;94770.28;5069400;28;20660;-77
2022/05/22 02:11:18;;;;;;;4.53;4.18;;;;;;;22.25;53.64;94767.44;5068791;28;20229;-76
2022/05/22 02:13:48;;;;;;;4.05;3.65;;;;;;;22.17;53.28;94773.25;5068484;28;20251;-76
2022/05/22 02:16:16;;;;;;;3.78;3.10;;;;;;;22.08;52.81;94765.44;5068557;28;20198;-76
2022/05/22 02:18:43;;;;;;;3.40;3.20;;;;;;;22.09;51.53;94767.88;5068987;28;20226;-76
2022/05/22 02:21:10;;;;;;;4.22;3.10;;;;;;;22.07;50.97;94774.97;5069332;28;20248;-76
2022/05/22 02:23:37;;;;;;;4.07;3.20;;;;;;;22.05;50.17;94782.03;5068512;28;20198;-76
2022/05/22 02:26:09;;;;;;;5.18;3.33;;;;;;;21.97;49.47;94784.41;5068808;28;20700;-76
2022/05/22 02:28:36;;;;;;;5.38;3.13;;;;;;;22.00;49.54;94779.00;5067926;28;20744;-75
2022/05/22 02:31:04;;;;;;;3.85;2.97;;;;;;;22.01;48.87;94783.25;5068349;28;20262;-75
2022/05/22 02:33:31;;;;;;;3.20;3.00;;;;;;;22.04;47.89;94790.72;5091597;28;20626;-75
2022/05/22 02:35:57;;;;;;;5.18;2.60;;;;;;;22.06;47.69;94792.25;5092019;28;20196;-76
2022/05/22 02:38:24;;;;;;;3.05;2.75;;;;;;;22.03;47.73;94779.56;5091342;28;20193;-76
2022/05/22 02:40:51;;;;;;;3.70;2.58;;;;;;;22.03;47.51;94784.75;5091713;28;20225;-76
2022/05/22 02:43:18;;;;;;;3.92;2.85;;;;;;;22.11;47.36;94789.28;5092213;28;20292;-76
2022/05/22 02:45:45;;;;;;;2.60;2.40;;;;;;;22.06;47.12;94784.50;5092018;28;20247;-76
2022/05/22 02:48:13;;;;;;;3.25;2.95;;;;;;;22.07;47.58;94785.31;5091742;28;20205;-75
2022/05/22 02:50:41;;;;;;;3.85;2.70;;;;;;;22.11;46.17;94791.88;5091595;28;20206;-75
2022/05/22 02:53:08;;;;;;;2.67;2.22;;;;;;;21.94;47.00;94795.84;5091197;28;20201;-75
2022/05/22 02:55:35;;;;;;;3.30;2.78;;;;;;;21.69;47.30;94786.69;5091659;28;20274;-75
2022/05/22 02:58:02;;;;;;;3.10;2.90;;;;;;;21.69;47.87;94793.63;5091479;28;20702;-74
2022/05/22 03:00:30;;;;;;;2.72;2.63;;;;;;;21.60;47.81;94792.59;5091319;28;20629;-75
2022/05/22 03:02:58;;;;;;;3.15;2.67;;;;;;;21.65;47.13;94799.97;5091230;28;20710;-75
2022/05/22 03:06:37;;;;;;;2.85;2.65;;;;;;;21.62;47.56;94805.41;5090913;28;20235;-76
2022/05/22 03:08:15;;;;;;;7.18;2.83;;;;;;;21.46;47.21;94795.47;5091307;28;20250;-76
2022/05/22 03:10:44;;;;;;;4.03;2.45;;;;;;;21.43;47.15;94803.47;5091164;28;20202;-75
2022/05/22 03:13:11;;;;;;;2.38;2.25;;;;;;;21.22;47.36;94807.78;5091311;28;20255;-75
2022/05/22 03:15:38;;;;;;;2.70;2.50;;;;;;;21.44;47.10;94802.53;5091239;28;20205;-75
2022/05/22 03:18:05;;;;;;;5.07;2.55;;;;;;;21.27;46.95;94816.81;5090838;28;20209;-76
2022/05/22 03:20:33;;;;;;;4.25;2.28;;;;;;;21.44;46.34;94806.88;5090850;28;20298;-75
2022/05/22 03:23:00;;;;;;;3.88;2.50;;;;;;;21.32;46.64;94811.25;5090647;28;20194;-75
2022/05/22 03:25:27;;;;;;;2.70;2.40;;;;;;;21.16;45.92;94809.06;5091370;28;20276;-75
2022/05/22 03:27:54;;;;;;;2.92;2.40;;;;;;;21.24;46.73;94821.41;5090785;28;20262;-75
2022/05/22 03:30:21;;;;;;;2.50;2.20;;;;;;;21.19;45.97;94810.56;5090183;28;20190;-76
2022/05/22 03:32:48;;;;;;;5.28;2.38;;;;;;;21.25;45.94;94812.72;5072971;28;20218;-76
2022/05/22 03:35:14;;;;;;;2.58;2.25;;;;;;;21.31;45.57;94813.03;5067775;28;20212;-76
2022/05/22 03:37:43;;;;;;;2.47;2.30;;;;;;;21.52;46.01;94820.84;5067720;28;20290;-76
2022/05/22 03:40:11;;;;;;;2.88;2.03;;;;;;;21.85;43.80;94811.28;5067902;28;20603;-76
2022/05/22 03:42:38;;;;;;;2.45;2.10;;;;;;;21.83;42.75;94823.53;5068106;28;20225;-76
2022/05/22 03:45:06;;;;;;;2.92;2.58;;;;;;;21.99;42.79;94821.34;5066854;28;20237;-76
2022/05/22 03:47:33;;;;;;;3.25;2.05;;;;;;;21.88;43.87;94829.16;5066968;28;20856;-76
2022/05/22 03:50:04;;;;;;;2.15;2.05;;;;;;;21.91;42.63;94821.97;5065429;28;20677;-75
2022/05/22 03:52:32;;;;;;;4.07;2.22;;;;;;;21.67;43.39;94818.78;5067054;28;20205;-76
2022/05/22 03:55:00;;;;;;;3.30;2.05;;;;;;;21.65;43.72;94818.91;5066883;28;20205;-76
2022/05/22 03:57:27;;;;;;;3.05;2.25;;;;;;;21.65;43.66;94816.31;5067138;28;20247;-76
2022/05/22 03:59:53;;;;;;;2.88;2.72;;;;;;;21.62;43.37;94819.16;5067069;28;20270;-76
2022/05/22 04:02:20;;;;;;;5.10;2.67;;;;;;;21.49;44.34;94821.09;5066865;28;20276;-76
2022/05/22 04:04:47;;;;;;;7.97;2.53;;;;;;;21.45;44.06;94809.34;5067200;28;20213;-76
2022/05/22 04:07:15;;;;;;;6.82;2.72;;;;;;;21.64;44.44;94822.44;5067423;28;20254;-76
2022/05/22 04:09:41;;;;;;;3.35;2.53;;;;;;;22.08;44.72;94825.78;5066779;28;20202;-76
2022/05/22 04:12:12;;;;;;;4.07;2.53;;;;;;;22.31;43.94;94824.69;5066183;28;20817;-76
2022/05/22 04:14:39;;;;;;;6.22;2.78;;;;;;;22.63;44.30;94819.41;5066410;28;20293;-76
2022/05/22 04:17:06;;;;;;;3.05;2.40;;;;;;;22.35;43.72;94826.06;5067253;28;20205;-76
2022/05/22 04:19:32;;;;;;;7.78;3.22;;;;;;;22.09;44.60;94827.41;5065726;28;20580;-76
2022/05/22 04:21:59;;;;;;;3.38;2.65;;;;;;;22.14;43.85;94830.44;5066319;28;20739;-76
2022/05/22 04:27:12;;;;;;;3.13;2.60;;;;;;;22.17;45.25;94830.19;5066554;28;21125;-75
2022/05/22 04:29:38;;;;;;;3.55;2.47;;;;;;;22.19;45.47;94830.91;5066390;28;20205;-75
2022/05/22 04:32:06;;;;;;;4.32;2.47;;;;;;;22.30;45.81;94833.41;5066130;28;20225;-76
2022/05/22 04:34:33;;;;;;;3.85;2.38;;;;;;;21.85;45.75;94826.81;5066228;28;20741;-76
2022/05/22 04:37:00;;;;;;;4.30;2.72;;;;;;;21.79;46.15;94829.88;5066734;28;20197;-76
2022/05/22 04:39:26;;;;;;;6.45;3.10;;;;;;;21.99;47.67;94842.03;5065377;28;20213;-76
2022/05/22 04:41:53;;;;;;;5.00;2.90;;;;;;;22.09;47.89;94839.53;5066426;28;20394;-76
2022/05/22 04:44:21;;;;;;;5.78;2.85;;;;;;;22.09;47.30;94834.34;5065450;28;20210;-76
2022/05/22 04:46:48;;;;;;;3.13;2.25;;;;;;;22.13;47.82;94840.94;5066911;28;20208;-76
2022/05/22 04:49:15;;;;;;;6.82;2.92;;;;;;;22.11;45.78;94838.47;5065605;28;20201;-76
2022/05/22 04:51:42;;;;;;;4.45;2.72;;;;;;;22.10;46.12;94836.81;5064983;28;20202;-75
2022/05/22 04:54:09;;;;;;;5.60;2.58;;;;;;;21.88;46.64;94839.50;5065262;28;20259;-75
2022/05/22 04:56:35;;;;;;;2.63;2.30;;;;;;;22.02;45.08;94834.84;5065395;28;20279;-76
2022/05/22 04:59:02;;;;;;;4.03;2.70;;;;;;;22.12;44.08;94840.09;5064001;28;20210;-75
2022/05/22 05:01:30;;;;;;;6.80;2.35;;;;;;;21.97;44.32;94833.59;5064378;28;20683;-76
2022/05/22 05:03:57;;;;;;;2.53;2.35;;;;;;;22.11;43.88;94837.63;5064357;28;20205;-76
2022/05/22 05:06:24;;;;;;;2.67;2.47;;;;;;;22.23;43.90;94840.06;5064296;28;20198;-77
2022/05/22 05:08:51;;;;;;;3.13;2.80;;;;;;;22.33;43.41;94838.31;5064429;28;20202;-75
2022/05/22 05:11:17;;;;;;;2.53;2.33;;;;;;;22.14;44.74;94837.38;5064873;28;20202;-76
2022/05/22 05:13:44;;;;;;;2.85;2.55;;;;;;;22.32;43.91;94841.84;5065213;28;20601;-75
2022/05/22 05:16:13;;;;;;;2.15;2.00;;;;;;;22.34;44.63;94839.13;5066374;28;20251;-75
2022/05/22 05:18:42;;;;;;;6.63;5.55;;;;;;;22.14;44.68;94848.56;5065517;28;20732;-76
2022/05/22 05:21:11;;;;;;;4.35;4.05;;;;;;;22.38;44.25;94841.34;5066158;28;20226;-75
2022/05/22 05:23:38;;;;;;;3.83;3.50;;;;;;;22.47;43.82;94837.19;5065262;28;20231;-75
2022/05/22 05:26:05;;;;;;;7.00;6.28;;;;;;;22.45;43.79;94843.44;5065396;28;20232;-75
2022/05/22 05:28:33;;;;;;;10.02;4.70;;;;;;;22.46;43.47;94847.66;5065562;28;20825;-76
2022/05/22 05:31:00;;;;;;;3.65;3.35;;;;;;;22.40;44.36;94849.00;5065452;28;20204;-76
2022/05/22 05:33:27;;;;;;;10.82;4.03;;;;;;;22.40;44.27;94844.63;5066970;28;20221;-75
2022/05/22 05:35:55;;;;;;;6.93;4.00;;;;;;;22.43;44.59;94851.34;5070240;28;20201;-76
2022/05/22 05:38:22;;;;;;;3.65;3.30;;;;;;;22.48;45.01;94845.78;5069317;28;20201;-76
2022/05/22 05:40:49;;;;;;;5.85;3.75;;;;;;;22.58;44.83;94837.09;5070148;28;20198;-75
2022/05/22 05:43:16;;;;;;;6.82;3.65;;;;;;;22.54;44.35;94842.66;5069209;28;20622;-74
2022/05/22 05:45:43;;;;;;;3.80;3.50;;;;;;;22.44;44.83;94855.56;5069790;28;20209;-75
2022/05/22 05:48:10;;;;;;;4.60;3.55;;;;;;;22.44;44.92;94845.19;5070055;28;20210;-75
2022/05/22 05:50:37;;;;;;;5.63;3.53;;;;;;;22.45;44.64;94857.22;5070028;28;20197;-75
2022/05/22 05:53:05;;;;;;;7.43;3.20;;;;;;;22.52;43.63;94862.69;5069232;28;20226;-75
2022/05/22 05:55:32;;;;;;;3.97;2.80;;;;;;;22.54;42.83;94858.19;5068672;28;20198;-75
2022/05/22 05:58:00;;;;;;;3.97;3.20;;;;;;;22.57;43.72;94861.34;5069516;28;20197;-76
2022/05/22 06:00:27;;;;;;;4.43;2.92;;;;;;;22.50;42.90;94864.59;5068748;28;20243;-75
2022/05/22 06:02:53;;;;;;;2.92;2.65;;;;;;;22.50;42.64;94860.25;5069140;28;20252;-75
2022/05/22 06:05:21;;;;;;;14.98;10.27;;;;;;;22.58;42.44;94862.16;5069046;28;20692;-75
2022/05/22 06:07:52;;;;;;;20.58;13.18;;;;;;;22.56;42.78;94849.34;5069529;28;20295;-75
2022/05/22 06:10:21;;;;;;;8.95;6.45;;;;;;;22.57;43.02;94861.34;5068415;28;21364;-75
2022/05/22 06:12:48;;;;;;;10.95;7.65;;;;;;;22.61;42.70;94862.72;5067868;28;20208;-75
2022/05/22 06:15:15;;;;;;;7.57;5.13;;;;;;;22.58;43.00;94851.81;5068143;28;20301;-75
2022/05/22 06:17:46;;;;;;;9.70;7.32;;;;;;;22.68;42.86;94857.88;5068783;28;20446;-74
2022/05/22 06:20:16;;;;;;;6.68;5.07;;;;;;;22.63;42.55;94865.19;5068805;28;20684;-75
2022/05/22 06:22:44;;;;;;;4.40;4.03;;;;;;;22.57;42.95;94866.53;5069415;28;20234;-75
2022/05/22 06:25:13;;;;;;;3.60;3.13;;;;;;;22.59;43.00;94862.03;5069043;28;20201;-74
2022/05/22 06:27:43;;;;;;;2.95;2.60;;;;;;;22.52;42.65;94862.69;5067734;28;20684;-75
2022/05/22 06:30:12;;;;;;;2.95;2.22;;;;;;;22.57;43.24;94865.69;5069100;28;20198;-75
2022/05/22 06:32:40;;;;;;;3.35;2.10;;;;;;;22.52;43.10;94862.69;5069225;28;20259;-75
2022/05/22 06:35:08;;;;;;;1.92;1.83;;;;;;;22.47;42.49;94863.06;5068049;28;20676;-74
2022/05/22 06:37:35;;;;;;;4.00;2.30;;;;;;;22.42;42.36;94846.28;5068549;28;21598;-75
2022/05/22 06:40:01;;;;;;;2.15;1.50;;;;;;;22.53;42.20;94859.13;5067936;28;20263;-75
2022/05/22 06:42:31;;;;;;;2.75;2.10;;;;;;;22.62;42.63;94854.00;5069046;28;20693;-75
2022/05/22 06:45:04;;;;;;;2.10;1.90;;;;;;;22.82;42.80;94849.75;5067851;28;20197;-75
2022/05/22 06:47:32;;;;;;;2.60;2.40;;;;;;;22.99;41.56;94856.94;5069240;28;20204;-76
2022/05/22 06:50:01;;;;;;;7.00;2.05;;;;;;;22.92;41.80;94850.63;5068409;28;20202;-75
2022/05/22 06:52:27;;;;;;;2.10;2.00;;;;;;;23.01;40.78;94838.66;5067896;28;20638;-74
2022/05/22 06:54:54;;;;;;;4.13;2.25;;;;;;;23.29;41.02;94857.81;5067888;28;20202;-74
2022/05/22 06:57:22;;;;;;;2.60;1.80;;;;;;;23.35;40.74;94859.88;5067946;28;20209;-76
2022/05/22 06:59:53;;;;;;;2.33;2.13;;;;;;;23.56;40.71;94850.25;5067654;28;20254;-76
2022/05/22 07:02:22;;;;;;;2.00;1.80;;;;;;;23.84;40.50;94847.81;5068007;28;20248;-75
2022/05/22 07:04:49;;;;;;;3.38;2.55;;;;;;;24.15;39.92;94846.69;5068025;28;20587;-75
2022/05/22 07:07:15;;;;;;;2.63;1.98;;;;;;;24.15;39.37;94836.31;5067335;28;20700;-74
2022/05/22 07:09:42;;;;;;;2.00;1.88;;;;;;;23.94;39.91;94838.25;5067756;28;20651;-75
2022/05/22 07:12:11;;;;;;;7.82;2.53;;;;;;;24.06;40.19;94837.13;5067613;28;20267;-75
2022/05/22 07:14:39;;;;;;;6.43;5.55;;;;;;;23.95;40.93;94842.47;5067576;28;20270;-75
2022/05/22 07:17:07;;;;;;;3.80;2.33;;;;;;;23.99;41.31;94836.88;5067969;28;20204;-74
2022/05/22 07:19:37;;;;;;;4.60;2.25;;;;;;;23.91;41.45;94828.97;5067100;28;21076;-76
2022/05/22 07:22:05;;;;;;;2.90;1.88;;;;;;;23.81;41.68;94832.50;5068377;28;20233;-75
2022/05/22 07:24:32;;;;;;;6.03;2.40;;;;;;;23.82;41.99;94844.53;5066969;28;20251;-75
2022/05/22 07:26:58;;;;;;;3.75;1.95;;;;;;;23.80;42.23;94847.25;5068133;28;20440;-74
2022/05/22 07:29:25;;;;;;;3.10;1.60;;;;;;;23.89;42.14;94840.44;5066904;28;20202;-75
2022/05/22 07:31:54;;;;;;;5.70;2.15;;;;;;;23.95;41.88;94839.88;5066877;28;20217;-74
2022/05/22 07:34:21;;;;;;;2.17;1.85;;;;;;;24.19;41.63;94842.03;5066751;28;20210;-75
2022/05/22 07:36:54;;;;;;;2.88;2.58;;;;;;;24.36;40.89;94849.97;5068348;28;21628;-74
2022/05/22 07:39:21;;;;;;;5.57;2.58;;;;;;;24.64;40.29;94847.44;5066677;28;20681;-75
2022/05/22 07:41:48;;;;;;;3.25;2.63;;;;;;;24.89;40.06;94851.16;5067790;28;20620;-76
2022/05/22 07:44:15;;;;;;;10.77;8.00;;;;;;;25.02;39.91;94842.09;5067267;28;20206;-75
2022/05/22 07:46:41;;;;;;;3.75;2.45;;;;;;;25.10;39.20;94833.59;5067669;28;20258;-76
2022/05/22 07:49:08;;;;;;;3.53;2.10;;;;;;;25.21;38.00;94816.97;5066628;28;20236;-74
2022/05/22 07:51:35;;;;;;;5.10;2.25;;;;;;;25.34;38.23;94830.44;5067026;28;20206;-75
2022/05/22 07:54:03;;;;;;;2.42;2.33;;;;;;;25.11;38.78;94824.00;5066576;28;20668;-75
2022/05/22 07:56:30;;;;;;;2.03;1.92;;;;;;;24.73;39.66;94825.81;5067406;28;20198;-75
2022/05/22 07:58:57;;;;;;;4.03;2.00;;;;;;;24.45;40.59;94816.31;5066615;28;20476;-75
2022/05/22 08:01:24;;;;;;;2.17;1.98;;;;;;;24.12;40.58;94820.19;5067296;28;20287;-75
2022/05/22 08:03:50;;;;;;;2.80;2.60;;;;;;;24.03;41.54;94806.25;5067013;28;20229;-75
2022/05/22 08:06:17;;;;;;;3.67;3.13;;;;;;;23.92;42.08;94801.22;5067237;28;20684;-76
2022/05/22 08:08:44;;;;;;;3.63;1.95;;;;;;;23.78;42.21;94796.44;5066483;28;20198;-75
2022/05/22 08:11:13;;;;;;;2.55;2.25;;;;;;;23.64;42.42;94793.31;5066956;28;20293;-75
2022/05/22 08:13:40;;;;;;;3.97;2.22;;;;;;;23.55;42.68;94791.53;5065918;28;20395;-76
2022/05/22 08:16:07;;;;;;;2.47;2.28;;;;;;;23.57;42.67;94794.00;5067148;28;20194;-75
2022/05/22 08:18:34;;;;;;;3.47;2.20;;;;;;;23.45;42.98;94784.69;5065790;28;20300;-76
2022/05/22 08:21:02;;;;;;;4.90;3.50;;;;;;;23.41;42.81;94789.31;5066700;28;20399;-76
2022/05/22 08:23:29;;;;;;;6.50;2.47;;;;;;;23.30;42.88;94787.66;5066269;28;20229;-76
2022/05/22 08:25:56;;;;;;;2.47;2.28;;;;;;;23.28;42.88;94788.75;5066929;28;20314;-76
2022/05/22 08:28:24;;;;;;;3.67;3.30;;;;;;;23.39;43.42;94770.50;5065987;28;20190;-75
2022/05/22 08:30:51;;;;;;;4.22;2.33;;;;;;;23.51;42.38;94768.59;5065573;28;20647;-75
2022/05/22 08:33:18;;;;;;;4.93;2.50;;;;;;;23.54;43.17;94773.50;5065464;28;20231;-75
2022/05/22 08:35:45;;;;;;;2.13;1.95;;;;;;;23.65;43.11;94771.63;5066675;28;20270;-74
2022/05/22 08:38:13;;;;;;;4.53;2.10;;;;;;;23.81;43.28;94773.63;5066180;28;20190;-76
2022/05/22 08:40:47;;;;;;;4.40;2.40;;;;;;;23.86;42.97;94768.84;5066846;28;20877;-77
2022/05/22 08:43:16;;;;;;;8.02;3.22;;;;;;;23.94;43.15;94768.16;5066332;28;20221;-75
2022/05/22 08:45:46;;;;;;;4.88;2.60;;;;;;;23.95;43.65;94773.22;5066597;28;20294;-76
2022/05/22 08:48:17;;;;;;;3.03;2.50;;;;;;;23.98;43.46;94774.72;5066393;28;20277;-76
2022/05/22 08:50:47;;;;;;;4.53;2.20;;;;;;;23.91;43.68;94778.81;5066252;28;20198;-76
2022/05/22 08:53:22;;;;;;;3.97;2.38;;;;;;;23.65;44.27;94784.59;5065150;28;20278;-76
2022/05/22 08:58:59;;;;;;;4.55;2.33;;;;;;;23.28;45.35;94779.22;5065172;28;20768;-76
2022/05/22 09:01:36;;;;;;;4.95;2.78;;;;;;;23.10;45.76;94775.63;5066581;28;20198;-76
2022/05/22 09:04:13;;;;;;;2.53;2.38;;;;;;;22.89;46.38;94773.16;5066228;28;20229;-76
2022/05/22 09:06:45;;;;;;;10.48;2.60;;;;;;;22.90;46.45;94779.97;5066911;28;20205;-77
2022/05/22 09:09:12;;;;;;;3.35;2.90;;;;;;;22.94;46.48;94783.13;5065891;28;20637;-76
2022/05/22 09:11:58;;;;;;;2.15;1.95;;;;;;;22.84;46.05;94783.09;5065982;28;20208;-76
2022/05/22 09:14:30;;;;;;;2.33;2.13;;;;;;;22.81;46.78;94779.94;5063726;28;20205;-77
2022/05/22 09:17:08;;;;;;;3.65;2.20;;;;;;;22.69;45.98;94782.63;5066558;28;20205;-75
2022/05/22 09:19:41;;;;;;;2.42;2.15;;;;;;;22.72;45.68;94776.34;5065757;28;20263;-75
2022/05/22 09:22:22;;;;;;;5.32;2.38;;;;;;;22.76;46.11;94776.91;5065986;28;20213;-76
2022/05/22 09:25:14;;;;;;;4.75;2.75;;;;;;;22.99;46.23;94780.97;5064518;28;20208;-76
2022/05/22 09:27:53;;;;;;;4.22;2.50;;;;;;;23.17;45.87;94768.97;5066389;28;20202;-76
2022/05/22 09:30:29;;;;;;;5.78;2.50;;;;;;;23.34;45.74;94767.47;5065259;28;20340;-76
2022/05/22 09:33:15;;;;;;;4.97;3.00;;;;;;;23.48;45.39;94771.47;5065220;28;20221;-76
2022/05/22 09:35:57;;;;;;;2.65;2.45;;;;;;;23.76;44.69;94767.25;5066166;28;20194;-76
2022/05/22 09:38:49;;;;;;;2.97;1.98;;;;;;;23.86;45.28;94768.03;5065606;28;20608;-75
2022/05/22 09:41:28;;;;;;;3.28;2.70;;;;;;;24.14;43.97;94767.16;5065696;28;20216;-75
2022/05/22 09:44:20;;;;;;;3.58;2.40;;;;;;;24.56;43.25;94753.78;5064602;28;20569;-76
2022/05/22 09:47:08;;;;;;;2.75;2.00;;;;;;;25.26;41.85;94745.31;5065679;28;20202;-76
2022/05/22 09:49:53;;;;;;;4.38;2.38;;;;;;;25.65;41.10;94739.84;5065130;28;20201;-76
2022/05/22 09:52:22;;;;;;;2.17;2.08;;;;;;;25.78;40.01;94732.47;5064019;28;20213;-75
2022/05/22 09:55:11;;;;;;;2.05;1.88;;;;;;;25.73;40.32;94732.94;5065200;28;20305;-75
2022/05/22 09:57:52;;;;;;;2.33;2.10;;;;;;;25.93;39.47;94724.94;5065607;28;20197;-75
2022/05/22 10:00:21;;;;;;;4.38;2.00;;;;;;;25.86;40.09;94706.50;5064916;28;20757;-75
2022/05/22 10:02:56;;;;;;;4.57;1.75;;;;;;;26.02;40.09;94709.19;5065798;28;20208;-76
2022/05/22 10:05:35;;;;;;;11.15;1.85;;;;;;;26.02;39.43;94721.38;5064260;28;20293;-75
2022/05/22 10:08:12;;;;;;;5.57;2.10;;;;;;;26.16;38.97;94702.59;5064969;28;20270;-75
2022/05/22 10:10:46;;;;;;;3.65;2.13;;;;;;;26.09;38.59;94710.22;5063727;28;20254;-75
2022/05/22 10:13:30;;;;;;;2.50;2.30;;;;;;;25.92;38.76;94690.25;5063150;28;20677;-75
2022/05/22 10:16:12;;;;;;;6.32;2.25;;;;;;;25.52;39.18;94700.34;5063522;28;20205;-76
2022/05/22 10:19:05;;;;;;;2.70;2.33;;;;;;;25.51;39.98;94699.53;5061066;28;20202;-75
2022/05/22 10:21:43;;;;;;;2.72;2.15;;;;;;;25.53;39.09;94700.19;5067005;28;20698;-75
2022/05/22 10:24:24;;;;;;;4.45;1.77;;;;;;;25.58;39.35;94692.75;5061429;28;22758;-76
2022/05/22 10:27:06;;;;;;;2.85;2.65;;;;;;;25.55;39.69;94697.44;5068754;28;20308;-75
2022/05/22 10:29:42;;;;;;;8.60;5.72;;;;;;;25.58;39.73;94691.94;5068588;28;21642;-75
2022/05/22 10:32:15;;;;;;;22.02;12.95;;;;;;;25.54;39.70;94690.59;5067975;28;20325;-76
2022/05/22 10:34:48;;;;;;;9.68;8.65;;;;;;;25.33;39.64;94685.72;5068388;28;20201;-75
2022/05/22 10:37:23;;;;;;;11.13;9.00;;;;;;;25.12;39.69;94677.41;5068139;28;20271;-76
2022/05/22 10:39:50;;;;;;;6.18;4.72;;;;;;;25.12;40.28;94685.22;5067879;28;20288;-77
2022/05/22 10:45:15;;;;;;;4.55;2.95;;;;;;;25.21;41.03;94677.34;5067737;28;20347;-76
2022/05/22 10:47:41;;;;;;;5.03;4.63;;;;;;;25.60;39.99;94680.41;5069042;28;20201;-76
2022/05/22 10:50:19;;;;;;;3.50;3.30;;;;;;;25.63;39.66;94674.13;5067791;28;20209;-76
2022/05/22 10:52:47;;;;;;;3.47;3.00;;;;;;;25.58;39.90;94679.75;5069333;28;20273;-76
2022/05/22 10:55:22;;;;;;;2.95;2.75;;;;;;;25.60;39.70;94680.41;5068789;28;20681;-76
2022/05/22 10:57:57;;;;;;;4.78;2.13;;;;;;;25.50;39.45;94673.66;5068432;28;20728;-72
2022/05/22 11:00:26;;;;;;;3.00;2.80;;;;;;;25.34;39.47;94669.97;5067151;28;20197;-73
2022/05/22 11:02:52;;;;;;;8.25;3.50;;;;;;;25.22;39.75;94670.38;5067418;28;20210;-73
2022/05/22 11:05:22;;;;;;;3.05;2.80;;;;;;;25.32;39.80;94671.09;5066604;28;20252;-73
2022/05/22 11:07:53;;;;;;;3.75;3.45;;;;;;;25.47;39.75;94674.81;5067810;28;20644;-72
2022/05/22 11:10:24;;;;;;;6.68;2.85;;;;;;;25.44;39.85;94669.91;5067807;28;20255;-72
2022/05/22 11:13:03;;;;;;;4.55;3.45;;;;;;;25.57;40.32;94670.31;5067200;28;20201;-73
2022/05/22 11:15:32;;;;;;;4.53;4.13;;;;;;;25.70;40.45;94659.53;5067189;28;20664;-72
2022/05/22 11:18:06;;;;;;;2.97;2.78;;;;;;;25.70;41.00;94660.38;5068431;28;20205;-72
2022/05/22 11:20:33;;;;;;;3.10;2.80;;;;;;;25.76;41.10;94666.72;5063228;28;20595;-73
2022/05/22 11:23:17;;;;;;;4.65;2.50;;;;;;;25.95;40.49;94666.53;5067025;28;20874;-72
2022/05/22 11:25:53;;;;;;;3.33;3.03;;;;;;;25.79;40.50;94660.41;5066798;28;20290;-72
2022/05/22 11:28:43;;;;;;;3.22;2.70;;;;;;;25.42;40.73;94658.81;5066723;28;20232;-73
2022/05/22 11:31:25;;;;;;;3.95;2.53;;;;;;;25.33;41.91;94654.53;5066539;28;21184;-73
2022/05/22 11:34:05;;;;;;;3.85;2.67;;;;;;;25.02;41.75;94631.50;5061855;28;20240;-73
2022/05/22 11:36:46;;;;;;;4.10;3.10;;;;;;;25.07;41.83;94651.88;5066361;28;20198;-72
2022/05/22 11:39:32;;;;;;;3.38;3.15;;;;;;;24.98;42.57;94648.41;5066677;28;20290;-72
2022/05/22 11:42:09;;;;;;;2.53;2.25;;;;;;;25.00;42.18;94633.44;5066077;28;20274;-73
2022/05/22 11:45:07;;;;;;;7.82;3.42;;;;;;;25.09;42.14;94635.16;5066355;28;20228;-73
2022/05/22 11:48:06;;;;;;;3.33;3.00;;;;;;;25.14;43.09;94639.91;5066575;28;20259;-72
2022/05/22 11:50:39;;;;;;;3.20;3.00;;;;;;;25.01;42.55;94650.66;5040078;28;20194;-73
2022/05/22 11:53:29;;;;;;;2.80;2.60;;;;;;;24.84;42.29;94640.25;5064035;28;20300;-72